Time;durP1;ratioP1;P1;durP2;ratioP2;P2;SDS_P1;SDS_P2;PMS_P1;PMS_P2;Temp;Humidity;BMP_temperature;BMP_pressure;BME280_temperature;BME280_humidity;BME280_pressure;Samples;Min_cycle;Max_cycle;Signal;HPM_P1;HPM_P2
2023/01/10 00:00:42;;;;;;;;;0.00;0.00;;;;;;;;5279273;27;9590;-71
2023/01/10 00:03:13;;;;;;;;;3.50;3.50;;;;;;;;5296286;27;9641;-71
2023/01/10 00:05:45;;;;;;;;;5.00;5.00;;;;;;;;5294403;27;8854;-71
2023/01/10 00:08:16;;;;;;;;;0.00;0.00;;;;;;;;5294418;27;8786;-69
2023/01/10 00:10:49;;;;;;;;;2.50;2.50;;;;;;;;5294113;27;8782;-69
2023/01/10 00:13:23;;;;;;;;;2.50;2.50;;;;;;;;5294758;27;8770;-69
2023/01/10 00:15:55;;;;;;;;;1.00;1.00;;;;;;;;5277659;27;8801;-72
2023/01/10 00:18:26;;;;;;;;;1.00;1.00;;;;;;;;5294480;27;8802;-71
2023/01/10 00:20:57;;;;;;;;;1.00;1.00;;;;;;;;5312298;27;9480;-70
2023/01/10 00:23:28;;;;;;;;;7.00;7.00;;;;;;;;5277638;27;8810;-70
2023/01/10 00:25:59;;;;;;;;;3.00;3.00;;;;;;;;5293931;27;8762;-70
2023/01/10 00:28:33;;;;;;;;;3.00;3.00;;;;;;;;5293871;27;8782;-69
2023/01/10 00:31:05;;;;;;;;;1.00;0.75;;;;;;;;5294180;27;9488;-69
2023/01/10 00:33:36;;;;;;;;;4.50;4.50;;;;;;;;5293704;27;8762;-70
2023/01/10 00:36:09;;;;;;;;;4.00;4.00;;;;;;;;5294344;27;8786;-70
2023/01/10 00:38:39;;;;;;;;;4.00;4.00;;;;;;;;5307945;27;8819;-70
2023/01/10 00:43:55;;;;;;;;;6.75;6.75;;;;;;;;5293582;27;8783;-70
2023/01/10 00:44:02;;;;;;;;;3.00;3.00;;;;;;;;5312576;27;8771;-70
2023/01/10 00:46:33;;;;;;;;;1.00;1.00;;;;;;;;5310892;27;8782;-69
2023/01/10 00:49:07;;;;;;;;;2.50;2.50;;;;;;;;5312096;27;9465;-70
2023/01/10 00:51:58;;;;;;;;;0.00;0.00;;;;;;;;5310703;27;8790;-71
2023/01/10 00:54:29;;;;;;;;;1.00;1.00;;;;;;;;5311779;27;9469;-71
2023/01/10 00:57:01;;;;;;;;;0.25;0.25;;;;;;;;5276387;27;9497;-70
2023/01/10 00:59:32;;;;;;;;;0.75;0.75;;;;;;;;5293489;27;8791;-70
2023/01/10 01:02:03;;;;;;;;;1.00;1.00;;;;;;;;5311031;27;8896;-70
2023/01/10 01:04:34;;;;;;;;;1.00;1.00;;;;;;;;5312325;27;8885;-70
2023/01/10 01:07:05;;;;;;;;;3.25;3.25;;;;;;;;5293646;27;8775;-70
2023/01/10 01:10:25;;;;;;;;;2.00;2.00;;;;;;;;5311357;27;8787;-70
2023/01/10 01:12:27;;;;;;;;;1.50;1.50;;;;;;;;5310163;27;8855;-70
2023/01/10 01:14:58;;;;;;;;;1.00;1.00;;;;;;;;5293531;27;8797;-71
2023/01/10 01:17:30;;;;;;;;;1.50;1.50;;;;;;;;5291510;27;8822;-71
2023/01/10 01:20:01;;;;;;;;;1.50;1.50;;;;;;;;5293459;27;8779;-69
2023/01/10 01:22:34;;;;;;;;;3.25;3.25;;;;;;;;5310095;27;8805;-68
2023/01/10 01:25:05;;;;;;;;;3.25;3.25;;;;;;;;5309950;27;8791;-68
2023/01/10 01:27:37;;;;;;;;;2.50;2.50;;;;;;;;5292638;27;9486;-68
2023/01/10 01:30:09;;;;;;;;;6.00;6.00;;;;;;;;5292687;27;8790;-67
2023/01/10 01:32:41;;;;;;;;;7.00;6.50;;;;;;;;5275652;27;8839;-70
2023/01/10 01:35:32;;;;;;;;;6.00;6.00;;;;;;;;5295240;27;8764;-69
2023/01/10 01:38:03;;;;;;;;;1.00;1.00;;;;;;;;5292020;27;9055;-69
2023/01/10 01:40:53;;;;;;;;;4.25;3.25;;;;;;;;5310775;27;8782;-71
2023/01/10 01:43:30;;;;;;;;;0.00;0.00;;;;;;;;5275417;27;8864;-71
2023/01/10 01:46:03;;;;;;;;;7.67;7.67;;;;;;;;5309943;27;8767;-72
2023/01/10 01:48:52;;;;;;;;;5.50;5.50;;;;;;;;5309611;27;8883;-72
2023/01/10 01:51:28;;;;;;;;;1.00;1.00;;;;;;;;5308958;27;8795;-70
2023/01/10 01:54:18;;;;;;;;;9.67;9.67;;;;;;;;5309199;27;8871;-71
2023/01/10 01:56:57;;;;;;;;;8.75;8.75;;;;;;;;5310079;27;8890;-71
2023/01/10 01:59:35;;;;;;;;;12.00;12.00;;;;;;;;5292577;27;8816;-71
2023/01/10 02:02:10;;;;;;;;;8.67;8.67;;;;;;;;5292004;27;9186;-71
2023/01/10 02:04:45;;;;;;;;;0.00;0.00;;;;;;;;5292801;27;8945;-71
2023/01/10 02:07:17;;;;;;;;;3.00;3.00;;;;;;;;5308560;27;9605;-70
2023/01/10 02:09:57;;;;;;;;;3.25;3.25;;;;;;;;5291810;27;8861;-69
2023/01/10 02:12:31;;;;;;;;;3.25;3.25;;;;;;;;5291813;27;8786;-70
2023/01/10 02:15:02;;;;;;;;;1.00;1.00;;;;;;;;5308819;27;8794;-71
2023/01/10 02:17:34;;;;;;;;;0.00;0.00;;;;;;;;5308693;27;8823;-71
2023/01/10 02:20:25;;;;;;;;;3.00;3.00;;;;;;;;5309054;27;9504;-70
2023/01/10 02:23:12;;;;;;;;;4.00;4.00;;;;;;;;5310194;27;8895;-70
2023/01/10 02:25:55;;;;;;;;;2.50;2.50;;;;;;;;5308588;27;8771;-72
2023/01/10 02:28:44;;;;;;;;;9.75;9.75;;;;;;;;5308459;27;8775;-72
2023/01/10 02:31:19;;;;;;;;;2.75;2.75;;;;;;;;5308824;27;8779;-72
2023/01/10 02:34:24;;;;;;;;;1.00;1.00;;;;;;;;5277494;27;8971;-72
2023/01/10 02:36:59;;;;;;;;;0.75;0.75;;;;;;;;5295006;27;8823;-72
2023/01/10 02:39:55;;;;;;;;;3.00;2.00;;;;;;;;5295817;27;8792;-71
2023/01/10 02:42:53;;;;;;;;;1.00;1.00;;;;;;;;5288238;27;8804;-70
2023/01/10 02:45:30;;;;;;;;;1.00;1.00;;;;;;;;5295607;27;8798;-71
2023/01/10 02:48:20;;;;;;;;;6.00;6.00;;;;;;;;5331167;27;9428;-71
2023/01/10 02:50:54;;;;;;;;;2.00;2.00;;;;;;;;5295474;27;8768;-69
2023/01/10 02:53:32;;;;;;;;;3.50;3.50;;;;;;;;5312925;27;8794;-69
2023/01/10 02:56:09;;;;;;;;;8.50;8.50;;;;;;;;5295525;27;8748;-69
2023/01/10 02:59:18;;;;;;;;;6.75;6.75;;;;;;;;5331499;27;8812;-69
2023/01/10 03:02:04;;;;;;;;;3.75;3.75;;;;;;;;5312932;27;8760;-69
2023/01/10 03:04:54;;;;;;;;;11.50;9.75;;;;;;;;5295828;27;8768;-74
2023/01/10 03:07:32;;;;;;;;;2.50;2.50;;;;;;;;5296290;27;8798;-73
2023/01/10 03:10:07;;;;;;;;;7.50;7.50;;;;;;;;5278893;27;9562;-73
2023/01/10 03:12:46;;;;;;;;;0.25;0.25;;;;;;;;5330697;27;8764;-72
2023/01/10 03:15:18;;;;;;;;;6.00;6.00;;;;;;;;5278559;27;8802;-73
2023/01/10 03:17:54;;;;;;;;;3.50;3.50;;;;;;;;5312384;27;9347;-72
2023/01/10 03:20:27;;;;;;;;;2.50;2.50;;;;;;;;5278412;27;8776;-71
2023/01/10 03:23:00;;;;;;;;;8.00;5.00;;;;;;;;5295141;27;8784;-72
2023/01/10 03:25:34;;;;;;;;;10.50;10.50;;;;;;;;5312189;27;8772;-72
2023/01/10 03:28:38;;;;;;;;;5.00;4.50;;;;;;;;5312406;27;8787;-73
2023/01/10 03:31:13;;;;;;;;;10.25;10.25;;;;;;;;5312693;27;8783;-73
2023/01/10 03:33:44;;;;;;;;;5.75;5.75;;;;;;;;5312353;27;8788;-73
2023/01/10 03:36:40;;;;;;;;;9.25;9.25;;;;;;;;5297196;27;8784;-72
2023/01/10 03:39:41;;;;;;;;;10.00;10.00;;;;;;;;5312381;27;8891;-73
2023/01/10 03:42:18;;;;;;;;;9.00;9.00;;;;;;;;5283499;27;8780;-72
2023/01/10 03:44:49;;;;;;;;;3.75;3.75;;;;;;;;5300694;27;8795;-73
2023/01/10 03:47:46;;;;;;;;;4.00;4.00;;;;;;;;5317021;27;8772;-72
2023/01/10 03:50:20;;;;;;;;;12.00;10.00;;;;;;;;5331044;27;8772;-72
2023/01/10 03:53:11;;;;;;;;;6.25;6.25;;;;;;;;5301688;27;8799;-73
2023/01/10 03:55:44;;;;;;;;;6.00;6.00;;;;;;;;5281880;27;8784;-72
2023/01/10 03:58:16;;;;;;;;;17.67;17.67;;;;;;;;5298890;27;9435;-72
2023/01/10 04:00:47;;;;;;;;;5.50;4.50;;;;;;;;5299026;27;9617;-72
2023/01/10 04:03:19;;;;;;;;;12.67;12.67;;;;;;;;5315711;27;8787;-73
2023/01/10 04:05:50;;;;;;;;;12.50;11.50;;;;;;;;5315443;27;8944;-73
2023/01/10 04:08:21;;;;;;;;;8.50;8.50;;;;;;;;5298574;27;8776;-73
2023/01/10 04:10:52;;;;;;;;;9.33;9.33;;;;;;;;5298056;27;8776;-70
2023/01/10 04:13:23;;;;;;;;;5.00;5.00;;;;;;;;5299249;27;8864;-70
2023/01/10 04:15:54;;;;;;;;;3.00;3.00;;;;;;;;5318022;27;8788;-72
2023/01/10 04:18:25;;;;;;;;;19.75;19.00;;;;;;;;5335618;27;8907;-70
2023/01/10 04:21:15;;;;;;;;;21.00;19.00;;;;;;;;5334082;27;8860;-70
2023/01/10 04:23:46;;;;;;;;;19.33;19.33;;;;;;;;5315060;27;8932;-71
2023/01/10 04:26:17;;;;;;;;;20.33;19.00;;;;;;;;5315358;27;8843;-70
2023/01/10 04:28:48;;;;;;;;;6.67;6.67;;;;;;;;5333599;27;9008;-71
2023/01/10 04:31:21;;;;;;;;;30.67;28.67;;;;;;;;5333357;27;11375;-69
2023/01/10 04:33:52;;;;;;;;;13.67;13.00;;;;;;;;5298128;27;9169;-70
2023/01/10 04:36:23;;;;;;;;;25.00;23.33;;;;;;;;5280994;27;9022;-70
2023/01/10 04:38:54;;;;;;;;;33.33;30.33;;;;;;;;5314698;27;9207;-71
2023/01/10 04:41:26;;;;;;;;;22.33;19.67;;;;;;;;5281060;27;9342;-71
2023/01/10 04:43:57;;;;;;;;;15.33;15.33;;;;;;;;5280773;27;10168;-72
2023/01/10 04:46:28;;;;;;;;;44.33;36.67;;;;;;;;5314742;27;8869;-72
2023/01/10 04:49:00;;;;;;;;;5.67;5.67;;;;;;;;5297713;27;9455;-72
2023/01/10 04:51:31;;;;;;;;;21.67;21.33;;;;;;;;5280562;27;9423;-73
2023/01/10 04:54:02;;;;;;;;;14.33;14.33;;;;;;;;5280687;27;9236;-72
2023/01/10 04:56:50;;;;;;;;;11.33;10.67;;;;;;;;5297516;27;8931;-72
2023/01/10 04:59:28;;;;;;;;;21.33;19.67;;;;;;;;5333472;27;8869;-72
2023/01/10 05:01:58;;;;;;;;;4.00;3.33;;;;;;;;5298307;27;9187;-72
2023/01/10 05:04:30;;;;;;;;;5.25;3.75;;;;;;;;5315196;27;8849;-71
2023/01/10 05:07:01;;;;;;;;;15.50;14.50;;;;;;;;5314219;27;8791;-71
2023/01/10 05:09:32;;;;;;;;;14.33;14.33;;;;;;;;5280665;27;9463;-70
2023/01/10 05:12:03;;;;;;;;;19.00;12.00;;;;;;;;5279536;27;9787;-73
2023/01/10 05:14:35;;;;;;;;;11.00;11.00;;;;;;;;5296920;27;8926;-73
2023/01/10 05:17:06;;;;;;;;;18.00;15.25;;;;;;;;5315455;27;9605;-79
2023/01/10 05:19:38;;;;;;;;;6.75;3.75;;;;;;;;5286306;27;9513;-80
2023/01/10 05:22:09;;;;;;;;;16.50;16.50;;;;;;;;5318142;27;8764;-80
2023/01/10 05:33:43;;;;;;;;;26.00;23.67;;;;;;;;5333075;27;9476;-79
2023/01/10 05:36:15;;;;;;;;;32.67;31.33;;;;;;;;5296687;27;9248;-76
2023/01/10 05:38:46;;;;;;;;;22.00;22.00;;;;;;;;5314627;27;9523;-77
2023/01/10 05:41:17;;;;;;;;;9.75;8.75;;;;;;;;5314966;27;9416;-78
2023/01/10 05:43:51;;;;;;;;;30.67;30.33;;;;;;;;5282474;27;8915;-79
2023/01/10 05:46:22;;;;;;;;;39.67;34.00;;;;;;;;5280098;27;9025;-76
2023/01/10 05:48:53;;;;;;;;;42.00;38.75;;;;;;;;5296704;27;9333;-75
2023/01/10 05:51:43;;;;;;;;;26.67;25.00;;;;;;;;5317758;27;8772;-74
2023/01/10 05:54:14;;;;;;;;;32.33;30.33;;;;;;;;5337179;27;9207;-73
2023/01/10 05:56:45;;;;;;;;;28.67;27.00;;;;;;;;5322854;27;9844;-77
2023/01/10 05:59:17;;;;;;;;;31.00;31.00;;;;;;;;5325053;27;8954;-76
2023/01/10 06:01:48;;;;;;;;;28.00;27.67;;;;;;;;5320630;27;8932;-74
2023/01/10 06:04:22;;;;;;;;;23.00;23.00;;;;;;;;5317447;27;9008;-77
2023/01/10 06:06:54;;;;;;;;;33.00;32.00;;;;;;;;5298219;27;8957;-73
2023/01/10 06:09:26;;;;;;;;;31.67;28.33;;;;;;;;5297269;27;9159;-74
2023/01/10 06:12:19;;;;;;;;;35.33;32.33;;;;;;;;5315036;27;9289;-73
2023/01/10 06:14:50;;;;;;;;;49.00;42.00;;;;;;;;5314194;27;9787;-78
2023/01/10 06:17:23;;;;;;;;;47.67;44.33;;;;;;;;5295959;27;9655;-74
2023/01/10 06:19:54;;;;;;;;;56.00;48.25;;;;;;;;5296328;27;9385;-74
2023/01/10 06:22:26;;;;;;;;;47.00;43.67;;;;;;;;5295945;27;9886;-75
2023/01/10 06:24:58;;;;;;;;;46.67;40.33;;;;;;;;5313187;27;9523;-79
2023/01/10 06:27:29;;;;;;;;;31.67;28.00;;;;;;;;5313521;27;9537;-74
2023/01/10 06:30:00;;;;;;;;;29.00;23.00;;;;;;;;5295865;27;9160;-75
2023/01/10 06:41:42;;;;;;;;;20.50;20.25;;;;;;;;5304050;27;8873;-74
2023/01/10 06:44:14;;;;;;;;;15.50;15.00;;;;;;;;5309468;27;8762;-77
2023/01/10 06:46:45;;;;;;;;;15.00;15.00;;;;;;;;5274467;27;8817;-76
2023/01/10 06:49:16;;;;;;;;;14.00;13.25;;;;;;;;5291605;27;8763;-77
2023/01/10 06:51:47;;;;;;;;;17.00;16.75;;;;;;;;5258713;27;8754;-75
2023/01/10 06:54:18;;;;;;;;;18.00;17.33;;;;;;;;5291760;27;8862;-75
2023/01/10 06:56:49;;;;;;;;;18.67;15.00;;;;;;;;5274435;27;11464;-78
2023/01/10 06:59:39;;;;;;;;;19.00;19.00;;;;;;;;5277296;27;8805;-76
2023/01/10 07:02:10;;;;;;;;;25.00;23.50;;;;;;;;5308647;27;8813;-77
2023/01/10 07:04:42;;;;;;;;;17.00;17.00;;;;;;;;5292345;27;8755;-75
2023/01/10 07:07:13;;;;;;;;;16.50;16.50;;;;;;;;5292086;27;8786;-76
2023/01/10 07:09:45;;;;;;;;;17.33;15.67;;;;;;;;5291075;27;8804;-78
2023/01/10 07:12:16;;;;;;;;;7.00;7.00;;;;;;;;5274163;27;9394;-79
2023/01/10 07:14:47;;;;;;;;;8.50;8.00;;;;;;;;5293186;27;8774;-78
2023/01/10 07:17:19;;;;;;;;;9.50;9.00;;;;;;;;5278662;27;8813;-80
2023/01/10 07:19:50;;;;;;;;;22.25;21.75;;;;;;;;5278461;27;8786;-78
2023/01/10 07:22:21;;;;;;;;;14.00;14.00;;;;;;;;5295951;27;8790;-77
2023/01/10 07:24:53;;;;;;;;;11.75;11.25;;;;;;;;5278870;27;8787;-78
2023/01/10 07:27:24;;;;;;;;;15.00;14.25;;;;;;;;5277762;27;8912;-82
2023/01/10 07:34:20;;;;;;;;;10.50;10.50;;;;;;;;5313221;27;8707;-73
2023/01/10 07:36:51;;;;;;;;;7.50;7.00;;;;;;;;5261075;27;8770;-74
2023/01/10 07:39:29;;;;;;;;;10.00;9.67;;;;;;;;5263039;27;8792;-74
2023/01/10 07:42:01;;;;;;;;;23.75;23.75;;;;;;;;5283145;27;8765;-74
2023/01/10 07:44:32;;;;;;;;;14.50;13.25;;;;;;;;5299559;27;8844;-73
2023/01/10 07:47:04;;;;;;;;;15.50;12.00;;;;;;;;5282229;27;8784;-72
2023/01/10 07:49:54;;;;;;;;;15.75;15.25;;;;;;;;5301831;27;8784;-75
2023/01/10 07:52:25;;;;;;;;;5.50;4.50;;;;;;;;5315864;27;8800;-74
2023/01/10 07:54:56;;;;;;;;;20.75;20.00;;;;;;;;5316218;27;8806;-74
2023/01/10 07:57:28;;;;;;;;;24.75;21.00;;;;;;;;5281952;27;8830;-73
2023/01/10 07:59:59;;;;;;;;;18.00;15.00;;;;;;;;5334406;27;8792;-74
2023/01/10 08:02:30;;;;;;;;;18.67;17.33;;;;;;;;5298925;27;8785;-75
2023/01/10 08:05:01;;;;;;;;;39.33;36.33;;;;;;;;5298454;27;9474;-76
2023/01/10 08:07:33;;;;;;;;;28.50;27.00;;;;;;;;5316533;27;11508;-75
2023/01/10 08:10:05;;;;;;;;;45.00;44.00;;;;;;;;5298348;27;9426;-74
2023/01/10 08:12:36;;;;;;;;;43.00;42.00;;;;;;;;5316244;27;8811;-75
2023/01/10 08:15:07;;;;;;;;;30.50;27.00;;;;;;;;5315888;27;8931;-75
2023/01/10 08:17:39;;;;;;;;;35.50;29.50;;;;;;;;5298321;27;8830;-75
2023/01/10 08:20:28;;;;;;;;;17.25;14.75;;;;;;;;5318328;27;8774;-75
2023/01/10 08:23:02;;;;;;;;;23.67;19.67;;;;;;;;5316816;27;8790;-76
2023/01/10 08:25:33;;;;;;;;;28.67;24.33;;;;;;;;5314732;27;8849;-75
2023/01/10 08:28:04;;;;;;;;;21.00;18.67;;;;;;;;5333709;27;8756;-75
2023/01/10 08:30:36;;;;;;;;;21.33;20.33;;;;;;;;5280931;27;9498;-78
2023/01/10 08:33:08;;;;;;;;;24.75;24.50;;;;;;;;5297983;27;10268;-76
2023/01/10 08:35:57;;;;;;;;;16.75;15.25;;;;;;;;5315247;27;8753;-76
2023/01/10 08:38:28;;;;;;;;;22.75;18.50;;;;;;;;5281185;27;8804;-74
2023/01/10 08:41:02;;;;;;;;;13.75;11.50;;;;;;;;5314967;27;8796;-77
2023/01/10 08:43:33;;;;;;;;;16.50;15.50;;;;;;;;5281116;27;8749;-75
2023/01/10 08:46:23;;;;;;;;;3.25;3.25;;;;;;;;5300912;27;8783;-76
2023/01/10 08:48:54;;;;;;;;;11.75;11.75;;;;;;;;5281110;27;8765;-76
2023/01/10 08:51:25;;;;;;;;;9.67;9.67;;;;;;;;5297743;27;8830;-76
2023/01/10 08:53:56;;;;;;;;;9.67;9.00;;;;;;;;5314653;27;9323;-77
2023/01/10 08:56:29;;;;;;;;;16.67;12.33;;;;;;;;5280641;27;8768;-76
2023/01/10 08:59:03;;;;;;;;;1.00;1.00;;;;;;;;5314555;27;11475;-76
2023/01/10 09:01:34;;;;;;;;;18.75;18.25;;;;;;;;5281839;27;8783;-76
2023/01/10 09:04:06;;;;;;;;;25.25;23.00;;;;;;;;5280859;27;8796;-76
2023/01/10 09:11:01;;;;;;;;;14.00;13.50;;;;;;;;5332738;27;8759;-73
2023/01/10 09:13:41;;;;;;;;;7.25;6.75;;;;;;;;5297697;27;8784;-74
2023/01/10 09:16:12;;;;;;;;;12.25;12.00;;;;;;;;5297400;27;8886;-76
2023/01/10 09:23:16;;;;;;;;;21.00;15.25;;;;;;;;5332997;27;9367;-76
2023/01/10 09:25:49;;;;;;;;;16.50;16.50;;;;;;;;5297912;27;8806;-81
2023/01/10 09:28:20;;;;;;;;;23.50;22.50;;;;;;;;5298185;27;8793;-78
2023/01/10 09:30:52;;;;;;;;;31.00;30.75;;;;;;;;5313994;27;8823;-79
2023/01/10 09:37:46;;;;;;;;;11.25;11.25;;;;;;;;5335120;27;8734;-79
2023/01/10 09:40:29;;;;;;;;;14.50;11.75;;;;;;;;5282553;27;8794;-79
2023/01/10 09:43:25;;;;;;;;;6.25;6.25;;;;;;;;5300869;27;8785;-80
2023/01/10 09:46:09;;;;;;;;;23.50;20.00;;;;;;;;5298916;27;8766;-79
2023/01/10 09:48:44;;;;;;;;;10.00;10.00;;;;;;;;5281144;27;8758;-79
2023/01/10 09:51:25;;;;;;;;;13.25;13.25;;;;;;;;5280861;27;8792;-77
2023/01/10 09:53:59;;;;;;;;;25.50;25.50;;;;;;;;5281803;27;8762;-79
2023/01/10 09:56:39;;;;;;;;;34.67;33.33;;;;;;;;5315334;27;8774;-79
2023/01/10 09:59:14;;;;;;;;;48.33;45.33;;;;;;;;5332868;27;9279;-79
2023/01/10 10:01:46;;;;;;;;;34.67;21.00;;;;;;;;5281140;27;9585;-78
2023/01/10 10:04:30;;;;;;;;;47.33;45.00;;;;;;;;5279965;27;9391;-78
2023/01/10 10:07:02;;;;;;;;;32.33;29.00;;;;;;;;5281018;27;9519;-80
2023/01/10 10:09:36;;;;;;;;;24.33;23.33;;;;;;;;5332014;27;9036;-79
2023/01/10 10:12:25;;;;;;;;;23.33;22.67;;;;;;;;5280394;27;8865;-78
2023/01/10 10:14:56;;;;;;;;;20.50;19.50;;;;;;;;5297998;27;8820;-78
2023/01/10 10:17:38;;;;;;;;;10.00;9.25;;;;;;;;5300181;27;8811;-79
2023/01/10 10:20:25;;;;;;;;;9.50;8.75;;;;;;;;5296365;27;8768;-79
2023/01/10 10:23:33;;;;;;;;;14.75;13.50;;;;;;;;5313061;27;8779;-79
2023/01/10 10:26:23;;;;;;;;;16.25;15.75;;;;;;;;5315180;27;9443;-79
2023/01/10 10:29:26;;;;;;;;;17.00;15.50;;;;;;;;5300126;27;9450;-79
2023/01/10 10:31:56;;;;;;;;;14.00;13.00;;;;;;;;5297285;27;8891;-79
2023/01/10 10:34:28;;;;;;;;;9.75;9.75;;;;;;;;5297176;27;9513;-79
2023/01/10 10:37:01;;;;;;;;;9.67;9.33;;;;;;;;5278925;27;8776;-80
2023/01/10 10:39:43;;;;;;;;;7.00;7.00;;;;;;;;5313443;27;8760;-80
2023/01/10 10:42:16;;;;;;;;;2.00;2.00;;;;;;;;5287065;27;8765;-79
2023/01/10 10:44:56;;;;;;;;;12.50;12.50;;;;;;;;5320424;27;8781;-79
2023/01/10 10:47:31;;;;;;;;;9.00;9.00;;;;;;;;5299101;27;8774;-78
2023/01/10 10:50:14;;;;;;;;;9.25;9.25;;;;;;;;5296706;27;9507;-78
2023/01/10 10:52:45;;;;;;;;;15.75;15.75;;;;;;;;5314230;27;8896;-77
2023/01/10 10:55:36;;;;;;;;;13.50;12.75;;;;;;;;5299627;27;8758;-75
2023/01/10 10:58:09;;;;;;;;;7.00;7.00;;;;;;;;5300749;27;8797;-78
2023/01/10 11:00:41;;;;;;;;;6.75;6.75;;;;;;;;5288451;27;8766;-77
2023/01/10 11:03:21;;;;;;;;;15.50;14.00;;;;;;;;5305951;27;8777;-78
2023/01/10 11:05:52;;;;;;;;;38.67;36.67;;;;;;;;5310800;27;8768;-78
2023/01/10 11:08:23;;;;;;;;;40.00;38.00;;;;;;;;5297666;27;9270;-76
2023/01/10 11:10:56;;;;;;;;;54.25;47.50;;;;;;;;5279611;27;9858;-79
2023/01/10 11:13:47;;;;;;;;;20.33;20.33;;;;;;;;5317883;27;9924;-76
2023/01/10 11:16:25;;;;;;;;;25.67;22.67;;;;;;;;5313529;27;9003;-77
2023/01/10 11:19:10;;;;;;;;;24.67;23.33;;;;;;;;5279036;27;9799;-77
2023/01/10 11:21:44;;;;;;;;;22.00;20.67;;;;;;;;5295700;27;9092;-77
2023/01/10 11:24:37;;;;;;;;;17.33;17.33;;;;;;;;5296060;27;9251;-77
2023/01/10 11:27:15;;;;;;;;;21.67;16.67;;;;;;;;5278953;27;8850;-77
2023/01/10 11:29:47;;;;;;;;;12.33;12.33;;;;;;;;5278733;27;9033;-78
2023/01/10 11:32:21;;;;;;;;;19.33;19.33;;;;;;;;5278399;27;9039;-77
2023/01/10 11:34:57;;;;;;;;;15.33;14.67;;;;;;;;5295573;27;9131;-77
2023/01/10 11:37:33;;;;;;;;;24.67;19.67;;;;;;;;5278885;27;9178;-77
2023/01/10 11:40:22;;;;;;;;;24.33;21.33;;;;;;;;5331588;27;9406;-76
2023/01/10 11:42:54;;;;;;;;;21.00;21.00;;;;;;;;5295945;27;9289;-76
2023/01/10 11:45:30;;;;;;;;;12.33;12.33;;;;;;;;5295750;27;9415;-77
2023/01/10 11:48:15;;;;;;;;;24.00;24.00;;;;;;;;5280031;27;9397;-75
2023/01/10 11:50:50;;;;;;;;;31.33;30.00;;;;;;;;5278773;27;9429;-76
2023/01/10 11:53:41;;;;;;;;;18.67;18.67;;;;;;;;5298443;27;9374;-76
2023/01/10 11:56:21;;;;;;;;;31.00;27.67;;;;;;;;5279587;27;9253;-76
2023/01/10 11:58:52;;;;;;;;;23.67;23.67;;;;;;;;5295240;27;9601;-76
2023/01/10 12:01:34;;;;;;;;;31.67;30.33;;;;;;;;5296831;27;9572;-77
2023/01/10 12:04:05;;;;;;;;;27.67;24.67;;;;;;;;5299992;27;9682;-76
2023/01/10 12:06:42;;;;;;;;;25.67;25.00;;;;;;;;5317632;27;9477;-75
2023/01/10 12:09:33;;;;;;;;;21.67;20.67;;;;;;;;5318796;27;9688;-77
2023/01/10 12:12:13;;;;;;;;;25.00;24.67;;;;;;;;5292715;27;9522;-77
2023/01/10 12:14:45;;;;;;;;;28.67;26.33;;;;;;;;5329106;27;9756;-77
2023/01/10 12:17:20;;;;;;;;;16.67;15.67;;;;;;;;5290302;27;9677;-76
2023/01/10 12:19:52;;;;;;;;;24.33;22.67;;;;;;;;5284592;27;9539;-76
2023/01/10 12:22:30;;;;;;;;;29.67;28.67;;;;;;;;5283819;27;9606;-78
2023/01/10 12:25:11;;;;;;;;;15.67;13.00;;;;;;;;5284853;27;9544;-77
2023/01/10 12:27:49;;;;;;;;;20.67;20.33;;;;;;;;5283703;27;9239;-80
2023/01/10 12:34:53;;;;;;;;;13.33;13.33;;;;;;;;5335182;27;9180;-77
2023/01/10 12:37:45;;;;;;;;;30.00;28.67;;;;;;;;5316472;27;9238;-77
2023/01/10 12:40:16;;;;;;;;;24.00;22.00;;;;;;;;5283747;27;9503;-86
2023/01/10 12:46:05;;;;;;;;;30.00;30.00;;;;;;;;5301222;27;12172;-87
2023/01/10 12:48:51;;;;;;;;;9.67;9.67;;;;;;;;5289863;27;9353;-83
2023/01/10 12:51:42;;;;;;;;;18.33;18.00;;;;;;;;5330469;27;9411;-81
2023/01/10 12:54:31;;;;;;;;;15.33;15.33;;;;;;;;5337332;27;9242;-86
2023/01/10 12:57:07;;;;;;;;;24.00;24.00;;;;;;;;5302501;27;9269;-78
2023/01/10 12:59:41;;;;;;;;;21.00;21.00;;;;;;;;5308542;27;9308;-84
2023/01/10 13:02:38;;;;;;;;;25.67;23.67;;;;;;;;5321823;27;9194;-86
2023/01/10 13:05:31;;;;;;;;;20.00;20.00;;;;;;;;5312856;27;9203;-76
2023/01/10 13:08:23;;;;;;;;;17.67;17.67;;;;;;;;5306194;27;9151;-86
2023/01/10 13:10:56;;;;;;;;;29.33;29.33;;;;;;;;5287573;27;9042;-79
2023/01/10 13:13:32;;;;;;;;;16.67;16.67;;;;;;;;5292605;27;9282;-81
2023/01/10 13:16:26;;;;;;;;;22.67;22.33;;;;;;;;5316017;27;9200;-78
2023/01/10 13:27:32;;;;;;;;;41.33;36.33;;;;;;;;5328700;27;9570;-80
2023/01/10 13:30:24;;;;;;;;;45.75;40.50;;;;;;;;5314135;27;9671;-82
2023/01/10 13:33:00;;;;;;;;;39.33;35.67;;;;;;;;5297434;27;10150;-81
2023/01/10 13:35:42;;;;;;;;;32.33;31.67;;;;;;;;5309552;27;9556;-84
2023/01/10 13:38:30;;;;;;;;;26.33;25.67;;;;;;;;5293857;27;9486;-80
2023/01/10 13:41:07;;;;;;;;;34.67;28.67;;;;;;;;5315825;27;9580;-84
2023/01/10 13:44:02;;;;;;;;;39.67;39.00;;;;;;;;5312495;27;9712;-81
2023/01/10 13:46:34;;;;;;;;;34.67;27.33;;;;;;;;5293286;27;10580;-84
2023/01/10 13:49:09;;;;;;;;;30.00;28.33;;;;;;;;5295543;27;10484;-87
2023/01/10 13:52:01;;;;;;;;;32.00;26.00;;;;;;;;5295718;27;9531;-78
2023/01/10 13:55:01;;;;;;;;;76.75;59.50;;;;;;;;5294973;27;9351;-78
2023/01/10 13:57:50;;;;;;;;;26.33;26.33;;;;;;;;5292385;27;10777;-78
2023/01/10 14:03:48;;;;;;;;;35.67;30.67;;;;;;;;5292884;27;9255;-87
2023/01/10 14:06:28;;;;;;;;;24.67;22.67;;;;;;;;5176305;28;9344;-73
2023/01/10 14:09:01;;;;;;;;;35.33;30.00;;;;;;;;5298500;27;9402;-80
2023/01/10 14:11:35;;;;;;;;;39.33;36.67;;;;;;;;5293928;27;9491;-81
2023/01/10 14:14:17;;;;;;;;;25.00;25.00;;;;;;;;5277725;27;10323;-78
2023/01/10 14:17:13;;;;;;;;;36.67;32.33;;;;;;;;5296257;27;9448;-80
2023/01/10 14:19:49;;;;;;;;;36.00;28.67;;;;;;;;5303097;27;9437;-78
2023/01/10 14:22:26;;;;;;;;;23.67;23.00;;;;;;;;5296335;27;9566;-81
2023/01/10 14:25:04;;;;;;;;;21.33;21.00;;;;;;;;5281961;27;9167;-78
2023/01/10 14:27:55;;;;;;;;;25.33;22.67;;;;;;;;5292432;27;9136;-76
2023/01/10 14:30:30;;;;;;;;;21.67;21.67;;;;;;;;5275897;27;9131;-82
2023/01/10 14:33:21;;;;;;;;;16.25;16.25;;;;;;;;5292206;27;9264;-76
2023/01/10 14:35:55;;;;;;;;;16.33;14.67;;;;;;;;5258648;27;8832;-78
2023/01/10 14:38:30;;;;;;;;;15.33;13.67;;;;;;;;5259858;27;9409;-70
2023/01/10 14:41:04;;;;;;;;;14.33;14.33;;;;;;;;5268912;27;8896;-75
2023/01/10 14:43:42;;;;;;;;;8.00;3.00;;;;;;;;5275194;27;8941;-78
2023/01/10 14:50:36;;;;;;;;;12.00;12.00;;;;;;;;5309887;27;8711;-78
2023/01/10 14:53:27;;;;;;;;;10.75;8.50;;;;;;;;5294893;27;8859;-78
2023/01/10 14:55:58;;;;;;;;;8.25;7.75;;;;;;;;5295820;27;8799;-78
2023/01/10 14:58:29;;;;;;;;;9.00;6.50;;;;;;;;5276542;27;8818;-82
2023/01/10 15:01:00;;;;;;;;;13.67;13.00;;;;;;;;5298865;27;9482;-83
2023/01/10 15:03:37;;;;;;;;;15.25;14.00;;;;;;;;5280135;27;11560;-84
2023/01/10 15:06:10;;;;;;;;;3.67;3.67;;;;;;;;5279902;27;8773;-85
2023/01/10 15:13:22;;;;;;;;;14.33;14.33;;;;;;;;5290896;27;9074;-85
2023/01/10 15:15:53;;;;;;;;;13.67;12.33;;;;;;;;5259468;27;8977;-81
2023/01/10 15:18:45;;;;;;;;;17.33;17.33;;;;;;;;5257497;27;8863;-82
2023/01/10 15:21:20;;;;;;;;;12.00;11.00;;;;;;;;5279302;27;9121;-82
2023/01/10 15:23:51;;;;;;;;;15.25;14.50;;;;;;;;5275248;27;8890;-79
2023/01/10 15:26:32;;;;;;;;;15.50;14.75;;;;;;;;5256785;27;8771;-78
2023/01/10 15:29:03;;;;;;;;;21.00;21.00;;;;;;;;5274484;27;8820;-79
2023/01/10 15:31:36;;;;;;;;;29.33;23.33;;;;;;;;5272922;27;8870;-78
2023/01/10 15:34:09;;;;;;;;;5.50;5.50;;;;;;;;5256723;27;9223;-77
2023/01/10 15:36:43;;;;;;;;;11.25;11.25;;;;;;;;5257658;27;8894;-77
2023/01/10 15:39:37;;;;;;;;;8.50;8.00;;;;;;;;5278279;27;9565;-77
2023/01/10 15:42:10;;;;;;;;;13.50;13.50;;;;;;;;5266133;27;8764;-77
2023/01/10 15:45:19;;;;;;;;;16.33;15.67;;;;;;;;5281061;27;8744;-82
2023/01/10 15:47:52;;;;;;;;;6.00;6.00;;;;;;;;5268568;27;8845;-81
2023/01/10 15:50:25;;;;;;;;;9.25;7.50;;;;;;;;5295851;27;8872;-82
2023/01/10 15:53:17;;;;;;;;;8.50;7.50;;;;;;;;5297911;27;8764;-82
2023/01/10 15:55:54;;;;;;;;;10.00;10.00;;;;;;;;5281454;27;8759;-83
2023/01/10 15:58:34;;;;;;;;;8.50;7.00;;;;;;;;5301407;27;8826;-83
2023/01/10 16:01:05;;;;;;;;;3.75;3.75;;;;;;;;5278044;27;8776;-78
2023/01/10 16:03:38;;;;;;;;;19.33;19.33;;;;;;;;5278820;27;8807;-78
2023/01/10 16:06:18;;;;;;;;;12.67;12.67;;;;;;;;5311403;27;10801;-78
2023/01/10 16:08:51;;;;;;;;;22.33;20.67;;;;;;;;5278002;27;9271;-79
2023/01/10 16:14:23;;;;;;;;;30.50;26.00;;;;;;;;5279219;27;9493;-80
2023/01/10 16:16:54;;;;;;;;;19.33;19.33;;;;;;;;5312477;27;10331;-78
2023/01/10 16:19:25;;;;;;;;;12.67;10.00;;;;;;;;5295927;27;9299;-77
2023/01/10 16:22:16;;;;;;;;;10.00;10.00;;;;;;;;5299957;27;9075;-79
2023/01/10 16:24:51;;;;;;;;;7.00;7.00;;;;;;;;5278522;27;9184;-80
2023/01/10 16:28:06;;;;;;;;;6.00;4.67;;;;;;;;5297588;27;9038;-79
2023/01/10 16:30:45;;;;;;;;;6.00;6.00;;;;;;;;5296826;27;8949;-79
2023/01/10 16:33:25;;;;;;;;;10.00;10.00;;;;;;;;5278670;27;9243;-78
2023/01/10 16:35:59;;;;;;;;;11.33;11.33;;;;;;;;5278769;27;9144;-80
2023/01/10 16:38:30;;;;;;;;;9.67;9.67;;;;;;;;5299538;27;9041;-82
2023/01/10 16:43:53;;;;;;;;;7.00;6.67;;;;;;;;5295032;27;8947;-78
2023/01/10 16:46:25;;;;;;;;;7.00;7.00;;;;;;;;5277819;27;9832;-79